sensor_id;sensor_type;location;lat;lon;timestamp;pressure;altitude;pressure_sealevel;temperature;humidity
64933;BME280;51446;53.850;10.662;2023-03-01T00:01:44;103115.06;;;-0.70;100.00
64933;BME280;51446;53.850;10.662;2023-03-01T00:04:09;103120.50;;;-0.75;100.00
64933;BME280;51446;53.850;10.662;2023-03-01T00:06:34;103123.38;;;-0.72;100.00
64933;BME280;51446;53.850;10.662;2023-03-01T00:09:00;103116.44;;;-0.73;100.00
64933;BME280;51446;53.850;10.662;2023-03-01T00:11:27;103117.78;;;-0.50;100.00
64933;BME280;51446;53.850;10.662;2023-03-01T00:13:55;103113.09;;;-0.55;100.00
64933;BME280;51446;53.850;10.662;2023-03-01T00:16:26;103116.88;;;-0.60;100.00
64933;BME280;51446;53.850;10.662;2023-03-01T00:18:53;103106.28;;;-0.54;100.00
64933;BME280;51446;53.850;10.662;2023-03-01T00:21:20;103107.19;;;-0.62;100.00
64933;BME280;51446;53.850;10.662;2023-03-01T00:23:46;103105.50;;;-0.88;100.00
64933;BME280;51446;53.850;10.662;2023-03-01T00:26:14;103109.91;;;-0.70;100.00
64933;BME280;51446;53.850;10.662;2023-03-01T00:28:41;103115.06;;;-0.61;100.00
64933;BME280;51446;53.850;10.662;2023-03-01T00:31:09;103114.88;;;-1.15;100.00
64933;BME280;51446;53.850;10.662;2023-03-01T00:33:35;103114.88;;;-0.97;100.00
64933;BME280;51446;53.850;10.662;2023-03-01T00:36:00;103117.19;;;-0.92;100.00
64933;BME280;51446;53.850;10.662;2023-03-01T00:38:26;103124.63;;;-0.77;100.00
64933;BME280;51446;53.850;10.662;2023-03-01T00:40:51;103118.38;;;-0.79;100.00
64933;BME280;51446;53.850;10.662;2023-03-01T00:43:18;103117.78;;;-0.94;100.00
64933;BME280;51446;53.850;10.662;2023-03-01T00:45:43;103121.88;;;-0.79;100.00
64933;BME280;51446;53.850;10.662;2023-03-01T00:48:08;103117.44;;;-1.15;100.00
64933;BME280;51446;53.850;10.662;2023-03-01T00:50:33;103119.00;;;-0.91;100.00
64933;BME280;51446;53.850;10.662;2023-03-01T00:52:59;103116.28;;;-0.83;100.00
64933;BME280;51446;53.850;10.662;2023-03-01T00:55:25;103114.00;;;-0.98;100.00
64933;BME280;51446;53.850;10.662;2023-03-01T00:57:50;103095.97;;;-0.98;100.00
64933;BME280;51446;53.850;10.662;2023-03-01T01:00:16;103089.28;;;-0.96;100.00
64933;BME280;51446;53.850;10.662;2023-03-01T01:02:42;103098.69;;;-1.05;100.00
64933;BME280;51446;53.850;10.662;2023-03-01T01:05:08;103093.56;;;-0.79;100.00
64933;BME280;51446;53.850;10.662;2023-03-01T01:07:33;103090.81;;;-0.89;100.00
64933;BME280;51446;53.850;10.662;2023-03-01T01:09:58;103089.44;;;-1.03;100.00
64933;BME280;51446;53.850;10.662;2023-03-01T01:12:24;103092.88;;;-1.20;100.00
64933;BME280;51446;53.850;10.662;2023-03-01T01:14:49;103096.13;;;-0.96;100.00
64933;BME280;51446;53.850;10.662;2023-03-01T01:17:14;103080.00;;;-1.20;100.00
64933;BME280;51446;53.850;10.662;2023-03-01T01:19:40;103082.56;;;-1.29;100.00
64933;BME280;51446;53.850;10.662;2023-03-01T01:22:05;103079.09;;;-1.29;100.00
64933;BME280;51446;53.850;10.662;2023-03-01T01:24:30;103078.28;;;-1.37;100.00
64933;BME280;51446;53.850;10.662;2023-03-01T01:26:56;103072.41;;;-1.27;100.00
64933;BME280;51446;53.850;10.662;2023-03-01T01:29:22;103076.69;;;-1.28;100.00
64933;BME280;51446;53.850;10.662;2023-03-01T01:31:47;103062.91;;;-1.28;100.00
64933;BME280;51446;53.850;10.662;2023-03-01T01:34:16;103068.22;;;-1.18;100.00
64933;BME280;51446;53.850;10.662;2023-03-01T01:36:42;103060.66;;;-1.16;100.00
64933;BME280;51446;53.850;10.662;2023-03-01T01:39:07;103070.94;;;-1.16;100.00
64933;BME280;51446;53.850;10.662;2023-03-01T01:41:39;103072.78;;;-0.98;100.00
64933;BME280;51446;53.850;10.662;2023-03-01T01:44:23;103066.25;;;-1.12;100.00
64933;BME280;51446;53.850;10.662;2023-03-01T01:46:53;103064.09;;;-1.25;100.00
64933;BME280;51446;53.850;10.662;2023-03-01T01:51:52;103069.13;;;-1.17;100.00
64933;BME280;51446;53.850;10.662;2023-03-01T01:54:23;103056.41;;;-0.98;100.00
64933;BME280;51446;53.850;10.662;2023-03-01T01:56:55;103063.81;;;-1.28;100.00
64933;BME280;51446;53.850;10.662;2023-03-01T01:59:24;103060.13;;;-1.38;100.00
64933;BME280;51446;53.850;10.662;2023-03-01T02:01:53;103054.66;;;-1.50;100.00
64933;BME280;51446;53.850;10.662;2023-03-01T02:04:19;103053.94;;;-1.32;100.00
64933;BME280;51446;53.850;10.662;2023-03-01T02:06:54;103056.66;;;-1.39;100.00
64933;BME280;51446;53.850;10.662;2023-03-01T02:09:22;103049.22;;;-1.45;100.00
64933;BME280;51446;53.850;10.662;2023-03-01T02:11:48;103050.25;;;-1.51;100.00
64933;BME280;51446;53.850;10.662;2023-03-01T02:14:16;103036.53;;;-1.34;100.00
64933;BME280;51446;53.850;10.662;2023-03-01T02:16:41;103041.97;;;-1.40;100.00
64933;BME280;51446;53.850;10.662;2023-03-01T02:19:11;103032.88;;;-1.54;100.00
64933;BME280;51446;53.850;10.662;2023-03-01T02:21:56;103032.91;;;-1.28;100.00
64933;BME280;51446;53.850;10.662;2023-03-01T02:24:45;103022.31;;;-1.40;100.00
64933;BME280;51446;53.850;10.662;2023-03-01T02:27:13;103023.19;;;-1.48;100.00
64933;BME280;51446;53.850;10.662;2023-03-01T02:29:38;103021.94;;;-1.51;100.00
64933;BME280;51446;53.850;10.662;2023-03-01T02:32:04;103019.50;;;-1.67;100.00
64933;BME280;51446;53.850;10.662;2023-03-01T02:34:31;103017.53;;;-1.70;100.00
64933;BME280;51446;53.850;10.662;2023-03-01T02:37:09;103013.56;;;-1.84;100.00
64933;BME280;51446;53.850;10.662;2023-03-01T02:39:40;103012.22;;;-2.14;100.00
64933;BME280;51446;53.850;10.662;2023-03-01T02:42:11;103022.78;;;-2.19;100.00
64933;BME280;51446;53.850;10.662;2023-03-01T02:44:38;103012.03;;;-2.24;100.00
64933;BME280;51446;53.850;10.662;2023-03-01T02:47:04;103017.91;;;-2.25;100.00
64933;BME280;51446;53.850;10.662;2023-03-01T02:49:32;103025.41;;;-2.02;100.00
64933;BME280;51446;53.850;10.662;2023-03-01T02:55:09;103006.59;;;-1.85;100.00
64933;BME280;51446;53.850;10.662;2023-03-01T02:57:37;102999.81;;;-1.84;100.00
64933;BME280;51446;53.850;10.662;2023-03-01T03:00:18;103013.56;;;-1.84;100.00
64933;BME280;51446;53.850;10.662;2023-03-01T03:02:45;102995.66;;;-2.00;100.00
64933;BME280;51446;53.850;10.662;2023-03-01T03:05:17;103008.22;;;-1.94;100.00
64933;BME280;51446;53.850;10.662;2023-03-01T03:07:45;103001.56;;;-1.92;100.00
64933;BME280;51446;53.850;10.662;2023-03-01T03:10:14;103004.56;;;-1.96;100.00
64933;BME280;51446;53.850;10.662;2023-03-01T03:12:39;103006.56;;;-1.94;100.00
64933;BME280;51446;53.850;10.662;2023-03-01T03:15:07;103005.19;;;-1.99;100.00
64933;BME280;51446;53.850;10.662;2023-03-01T03:17:38;103022.56;;;-1.96;100.00
64933;BME280;51446;53.850;10.662;2023-03-01T03:20:04;103012.53;;;-1.77;100.00
64933;BME280;51446;53.850;10.662;2023-03-01T03:22:31;103003.28;;;-1.75;100.00
64933;BME280;51446;53.850;10.662;2023-03-01T03:24:56;103002.41;;;-1.76;100.00
64933;BME280;51446;53.850;10.662;2023-03-01T03:27:22;103003.88;;;-1.78;100.00
64933;BME280;51446;53.850;10.662;2023-03-01T03:29:47;102996.28;;;-1.85;100.00
64933;BME280;51446;53.850;10.662;2023-03-01T03:32:12;102999.47;;;-1.87;100.00
64933;BME280;51446;53.850;10.662;2023-03-01T03:34:37;103000.88;;;-1.73;100.00
64933;BME280;51446;53.850;10.662;2023-03-01T03:37:03;102993.28;;;-1.81;100.00
64933;BME280;51446;53.850;10.662;2023-03-01T03:39:28;102987.22;;;-1.90;100.00
64933;BME280;51446;53.850;10.662;2023-03-01T03:41:54;102994.66;;;-1.84;100.00
64933;BME280;51446;53.850;10.662;2023-03-01T03:44:20;102988.13;;;-1.89;100.00
64933;BME280;51446;53.850;10.662;2023-03-01T03:46:45;102978.72;;;-1.98;100.00
64933;BME280;51446;53.850;10.662;2023-03-01T03:49:10;102986.47;;;-1.80;100.00
64933;BME280;51446;53.850;10.662;2023-03-01T03:51:36;102985.84;;;-1.86;100.00
64933;BME280;51446;53.850;10.662;2023-03-01T03:54:01;102990.56;;;-1.82;100.00
64933;BME280;51446;53.850;10.662;2023-03-01T03:56:26;102987.28;;;-1.72;100.00
64933;BME280;51446;53.850;10.662;2023-03-01T03:58:52;102982.72;;;-1.66;100.00
64933;BME280;51446;53.850;10.662;2023-03-01T04:01:18;102985.75;;;-1.62;100.00
64933;BME280;51446;53.850;10.662;2023-03-01T04:03:43;102980.03;;;-1.50;100.00
64933;BME280;51446;53.850;10.662;2023-03-01T04:06:12;102985.03;;;-1.61;100.00
64933;BME280;51446;53.850;10.662;2023-03-01T04:08:37;102981.84;;;-1.67;100.00
64933;BME280;51446;53.850;10.662;2023-03-01T04:11:04;102978.41;;;-1.24;100.00
64933;BME280;51446;53.850;10.662;2023-03-01T04:13:50;102985.84;;;-1.18;100.00
64933;BME280;51446;53.850;10.662;2023-03-01T04:16:16;102990.50;;;-1.40;100.00
64933;BME280;51446;53.850;10.662;2023-03-01T04:18:42;102991.72;;;-1.45;100.00
64933;BME280;51446;53.850;10.662;2023-03-01T04:21:08;102992.91;;;-1.50;100.00
64933;BME280;51446;53.850;10.662;2023-03-01T04:23:33;102984.59;;;-1.30;100.00
64933;BME280;51446;53.850;10.662;2023-03-01T04:25:59;102989.59;;;-1.49;100.00
64933;BME280;51446;53.850;10.662;2023-03-01T04:28:30;102986.84;;;-1.60;100.00
64933;BME280;51446;53.850;10.662;2023-03-01T04:30:58;102985.91;;;-1.60;100.00
64933;BME280;51446;53.850;10.662;2023-03-01T04:33:26;102980.44;;;-1.72;100.00
64933;BME280;51446;53.850;10.662;2023-03-01T04:35:52;102984.72;;;-1.55;100.00
64933;BME280;51446;53.850;10.662;2023-03-01T04:38:18;102989.13;;;-1.63;100.00
64933;BME280;51446;53.850;10.662;2023-03-01T04:40:44;102985.94;;;-1.51;100.00
64933;BME280;51446;53.850;10.662;2023-03-01T04:43:10;102988.34;;;-1.62;100.00
64933;BME280;51446;53.850;10.662;2023-03-01T04:45:36;102983.50;;;-1.59;100.00
64933;BME280;51446;53.850;10.662;2023-03-01T04:48:02;102986.69;;;-1.70;100.00
64933;BME280;51446;53.850;10.662;2023-03-01T04:50:27;102989.13;;;-1.63;100.00
64933;BME280;51446;53.850;10.662;2023-03-01T04:52:53;102990.63;;;-1.56;100.00
64933;BME280;51446;53.850;10.662;2023-03-01T04:55:18;102988.78;;;-1.57;100.00
64933;BME280;51446;53.850;10.662;2023-03-01T04:57:44;102989.72;;;-1.57;100.00
64933;BME280;51446;53.850;10.662;2023-03-01T05:00:12;102991.69;;;-1.54;100.00
64933;BME280;51446;53.850;10.662;2023-03-01T05:03:04;102986.25;;;-1.48;100.00
64933;BME280;51446;53.850;10.662;2023-03-01T05:05:35;102989.88;;;-1.55;100.00
64933;BME280;51446;53.850;10.662;2023-03-01T05:08:06;102986.56;;;-1.54;100.00
64933;BME280;51446;53.850;10.662;2023-03-01T05:10:34;102990.78;;;-1.46;100.00
64933;BME280;51446;53.850;10.662;2023-03-01T05:13:00;102988.22;;;-1.46;100.00
64933;BME280;51446;53.850;10.662;2023-03-01T05:15:27;102985.91;;;-1.60;100.00
64933;BME280;51446;53.850;10.662;2023-03-01T05:17:55;102991.06;;;-1.51;100.00
64933;BME280;51446;53.850;10.662;2023-03-01T05:20:21;102979.88;;;-1.52;100.00
64933;BME280;51446;53.850;10.662;2023-03-01T05:22:50;102987.00;;;-1.49;100.00
64933;BME280;51446;53.850;10.662;2023-03-01T05:25:15;102984.88;;;-1.62;100.00
64933;BME280;51446;53.850;10.662;2023-03-01T05:27:41;102977.75;;;-1.56;100.00
64933;BME280;51446;53.850;10.662;2023-03-01T05:30:06;102984.25;;;-1.68;100.00
64933;BME280;51446;53.850;10.662;2023-03-01T05:32:43;102986.97;;;-1.76;100.00
64933;BME280;51446;53.850;10.662;2023-03-01T05:35:14;102990.91;;;-1.62;100.00
64933;BME280;51446;53.850;10.662;2023-03-01T05:37:42;102992.72;;;-1.69;100.00
64933;BME280;51446;53.850;10.662;2023-03-01T05:40:09;102986.69;;;-1.70;100.00
64933;BME280;51446;53.850;10.662;2023-03-01T05:42:56;102987.44;;;-1.62;100.00
64933;BME280;51446;53.850;10.662;2023-03-01T05:45:24;102986.81;;;-1.68;100.00
64933;BME280;51446;53.850;10.662;2023-03-01T05:47:50;102990.28;;;-1.77;100.00
64933;BME280;51446;53.850;10.662;2023-03-01T05:50:18;102984.56;;;-1.65;100.00
64933;BME280;51446;53.850;10.662;2023-03-01T05:52:47;102982.44;;;-1.61;100.00
64933;BME280;51446;53.850;10.662;2023-03-01T05:55:17;102975.31;;;-1.63;100.00
64933;BME280;51446;53.850;10.662;2023-03-01T05:57:43;102962.47;;;-1.54;100.00
64933;BME280;51446;53.850;10.662;2023-03-01T06:00:09;102969.00;;;-1.58;100.00
64933;BME280;51446;53.850;10.662;2023-03-01T06:02:35;102967.69;;;-1.88;100.00
64933;BME280;51446;53.850;10.662;2023-03-01T06:05:00;102963.59;;;-1.95;100.00
64933;BME280;51446;53.850;10.662;2023-03-01T06:07:25;102943.16;;;-2.02;100.00
64933;BME280;51446;53.850;10.662;2023-03-01T06:09:51;102962.84;;;-1.94;100.00
64933;BME280;51446;53.850;10.662;2023-03-01T06:12:16;102961.03;;;-1.86;100.00
64933;BME280;51446;53.850;10.662;2023-03-01T06:14:42;102962.53;;;-1.97;100.00
64933;BME280;51446;53.850;10.662;2023-03-01T06:17:07;102963.75;;;-1.93;100.00
64933;BME280;51446;53.850;10.662;2023-03-01T06:19:32;102969.97;;;-1.91;100.00
64933;BME280;51446;53.850;10.662;2023-03-01T06:21:58;102965.25;;;-1.95;100.00
64933;BME280;51446;53.850;10.662;2023-03-01T06:24:23;102962.72;;;-1.86;100.00
64933;BME280;51446;53.850;10.662;2023-03-01T06:26:48;102966.53;;;-1.83;100.00
64933;BME280;51446;53.850;10.662;2023-03-01T06:29:13;102965.47;;;-1.76;100.00
64933;BME280;51446;53.850;10.662;2023-03-01T06:31:39;102967.75;;;-1.70;100.00
64933;BME280;51446;53.850;10.662;2023-03-01T06:34:05;102964.72;;;-1.66;100.00
64933;BME280;51446;53.850;10.662;2023-03-01T06:36:30;102975.91;;;-1.66;100.00
64933;BME280;51446;53.850;10.662;2023-03-01T06:38:55;102975.03;;;-1.58;100.00
64933;BME280;51446;53.850;10.662;2023-03-01T06:41:20;102985.78;;;-1.53;100.00
64933;BME280;51446;53.850;10.662;2023-03-01T06:43:46;102983.03;;;-1.63;100.00
64933;BME280;51446;53.850;10.662;2023-03-01T06:46:11;102979.59;;;-1.55;100.00
64933;BME280;51446;53.850;10.662;2023-03-01T06:48:36;102987.16;;;-1.57;100.00
64933;BME280;51446;53.850;10.662;2023-03-01T06:51:02;102982.75;;;-1.49;100.00
64933;BME280;51446;53.850;10.662;2023-03-01T06:53:28;102991.06;;;-1.60;100.00
64933;BME280;51446;53.850;10.662;2023-03-01T06:55:55;102981.88;;;-1.49;100.00
64933;BME280;51446;53.850;10.662;2023-03-01T06:58:20;102987.00;;;-1.49;100.00
64933;BME280;51446;53.850;10.662;2023-03-01T07:00:46;102986.28;;;-1.40;100.00
64933;BME280;51446;53.850;10.662;2023-03-01T07:03:11;102991.72;;;-1.36;100.00
64933;BME280;51446;53.850;10.662;2023-03-01T07:05:36;102979.59;;;-1.29;100.00
64933;BME280;51446;53.850;10.662;2023-03-01T07:08:02;102973.84;;;-1.09;100.00
64933;BME280;51446;53.850;10.662;2023-03-01T07:10:27;102976.13;;;-1.03;100.00
64933;BME280;51446;53.850;10.662;2023-03-01T07:12:59;102964.91;;;-0.95;100.00
64933;BME280;51446;53.850;10.662;2023-03-01T07:15:25;102972.19;;;-0.99;100.00
64933;BME280;51446;53.850;10.662;2023-03-01T07:17:51;102970.38;;;-1.00;100.00
64933;BME280;51446;53.850;10.662;2023-03-01T07:20:20;102965.50;;;-0.80;100.00
64933;BME280;51446;53.850;10.662;2023-03-01T07:22:49;102963.50;;;-0.74;100.00
64933;BME280;51446;53.850;10.662;2023-03-01T07:25:15;102963.91;;;-0.51;100.00
64933;BME280;51446;53.850;10.662;2023-03-01T07:27:40;102969.16;;;-0.32;100.00
64933;BME280;51446;53.850;10.662;2023-03-01T07:30:06;102965.03;;;-0.30;100.00
64933;BME280;51446;53.850;10.662;2023-03-01T07:32:31;102959.41;;;0.10;100.00
64933;BME280;51446;53.850;10.662;2023-03-01T07:34:56;102960.22;;;0.47;100.00
64933;BME280;51446;53.850;10.662;2023-03-01T07:37:22;102957.00;;;0.31;100.00
64933;BME280;51446;53.850;10.662;2023-03-01T07:39:47;102963.41;;;0.54;100.00
64933;BME280;51446;53.850;10.662;2023-03-01T07:42:12;102956.13;;;0.30;100.00
64933;BME280;51446;53.850;10.662;2023-03-01T07:44:37;102962.50;;;0.25;100.00
64933;BME280;51446;53.850;10.662;2023-03-01T07:47:03;102961.03;;;0.46;100.00
64933;BME280;51446;53.850;10.662;2023-03-01T07:49:29;102969.09;;;0.41;100.00
64933;BME280;51446;53.850;10.662;2023-03-01T07:51:54;102964.28;;;0.54;100.00
64933;BME280;51446;53.850;10.662;2023-03-01T07:54:20;102972.38;;;0.48;100.00
64933;BME280;51446;53.850;10.662;2023-03-01T07:56:45;102968.81;;;0.10;100.00
64933;BME280;51446;53.850;10.662;2023-03-01T07:59:10;102968.00;;;0.20;100.00
64933;BME280;51446;53.850;10.662;2023-03-01T08:01:36;102969.28;;;0.06;100.00
64933;BME280;51446;53.850;10.662;2023-03-01T08:04:01;102981.81;;;0.20;100.00
64933;BME280;51446;53.850;10.662;2023-03-01T08:06:27;102976.63;;;0.29;100.00
64933;BME280;51446;53.850;10.662;2023-03-01T08:08:52;102975.28;;;0.24;100.00
64933;BME280;51446;53.850;10.662;2023-03-01T08:11:20;102981.03;;;0.49;100.00
64933;BME280;51446;53.850;10.662;2023-03-01T08:13:47;102981.34;;;0.52;100.00
64933;BME280;51446;53.850;10.662;2023-03-01T08:16:14;102970.56;;;0.47;100.00
64933;BME280;51446;53.850;10.662;2023-03-01T08:18:40;102976.59;;;0.57;100.00
64933;BME280;51446;53.850;10.662;2023-03-01T08:21:07;102968.97;;;0.58;100.00
64933;BME280;51446;53.850;10.662;2023-03-01T08:23:34;102969.66;;;0.66;100.00
64933;BME280;51446;53.850;10.662;2023-03-01T08:26:04;102969.75;;;0.95;100.00
64933;BME280;51446;53.850;10.662;2023-03-01T08:28:29;102968.06;;;1.25;100.00
64933;BME280;51446;53.850;10.662;2023-03-01T08:30:54;102974.03;;;1.24;100.00
64933;BME280;51446;53.850;10.662;2023-03-01T08:33:20;102973.91;;;1.03;100.00
64933;BME280;51446;53.850;10.662;2023-03-01T08:35:45;102975.38;;;1.39;100.00
64933;BME280;51446;53.850;10.662;2023-03-01T08:38:10;102978.78;;;1.49;100.00
64933;BME280;51446;53.850;10.662;2023-03-01T08:40:36;102977.84;;;1.67;100.00
64933;BME280;51446;53.850;10.662;2023-03-01T08:43:01;102971.94;;;1.99;100.00
64933;BME280;51446;53.850;10.662;2023-03-01T08:45:26;102966.03;;;1.61;100.00
64933;BME280;51446;53.850;10.662;2023-03-01T08:47:52;102963.00;;;2.06;100.00
64933;BME280;51446;53.850;10.662;2023-03-01T08:50:18;102957.88;;;2.47;100.00
64933;BME280;51446;53.850;10.662;2023-03-01T08:52:43;102966.53;;;2.48;100.00
64933;BME280;51446;53.850;10.662;2023-03-01T08:55:09;102956.16;;;2.78;100.00
64933;BME280;51446;53.850;10.662;2023-03-01T08:57:34;102960.41;;;2.88;100.00
64933;BME280;51446;53.850;10.662;2023-03-01T08:59:59;102968.47;;;2.81;100.00
64933;BME280;51446;53.850;10.662;2023-03-01T09:02:24;102966.56;;;3.11;100.00
64933;BME280;51446;53.850;10.662;2023-03-01T09:04:50;102978.91;;;3.46;100.00
64933;BME280;51446;53.850;10.662;2023-03-01T09:07:15;102973.75;;;4.24;100.00
64933;BME280;51446;53.850;10.662;2023-03-01T09:09:41;102970.00;;;4.66;100.00
64933;BME280;51446;53.850;10.662;2023-03-01T09:12:06;102968.78;;;4.73;100.00
64933;BME280;51446;53.850;10.662;2023-03-01T09:14:31;102962.91;;;5.11;100.00
64933;BME280;51446;53.850;10.662;2023-03-01T09:16:57;102970.06;;;4.90;100.00
64933;BME280;51446;53.850;10.662;2023-03-01T09:19:22;102965.72;;;5.38;100.00
64933;BME280;51446;53.850;10.662;2023-03-01T09:21:47;102957.34;;;6.41;100.00
64933;BME280;51446;53.850;10.662;2023-03-01T09:24:21;102955.34;;;7.99;100.00
64933;BME280;51446;53.850;10.662;2023-03-01T09:26:47;102954.00;;;8.49;100.00
64933;BME280;51446;53.850;10.662;2023-03-01T09:29:13;102943.91;;;7.56;100.00
64933;BME280;51446;53.850;10.662;2023-03-01T09:31:39;102938.81;;;7.86;100.00
64933;BME280;51446;53.850;10.662;2023-03-01T09:34:05;102940.38;;;9.79;100.00
64933;BME280;51446;53.850;10.662;2023-03-01T09:36:30;102938.72;;;9.48;88.37
64933;BME280;51446;53.850;10.662;2023-03-01T09:38:57;102944.69;;;10.97;78.84
64933;BME280;51446;53.850;10.662;2023-03-01T09:41:32;102941.34;;;11.75;73.56
64933;BME280;51446;53.850;10.662;2023-03-01T09:44:16;102943.25;;;11.59;75.82
64933;BME280;51446;53.850;10.662;2023-03-01T09:46:45;102940.44;;;10.99;71.04
64933;BME280;51446;53.850;10.662;2023-03-01T09:49:15;102940.22;;;12.07;67.88
64933;BME280;51446;53.850;10.662;2023-03-01T09:51:43;102931.13;;;13.05;61.12
64933;BME280;51446;53.850;10.662;2023-03-01T09:54:13;102928.47;;;10.70;69.56
64933;BME280;51446;53.850;10.662;2023-03-01T09:56:41;102928.19;;;11.55;66.01
64933;BME280;51446;53.850;10.662;2023-03-01T10:02:30;102925.50;;;12.74;63.37
64933;BME280;51446;53.850;10.662;2023-03-01T10:05:20;102924.88;;;12.38;64.76
64933;BME280;51446;53.850;10.662;2023-03-01T10:10:40;102936.59;;;11.86;64.53
64933;BME280;51446;53.850;10.662;2023-03-01T10:13:21;102929.00;;;12.52;65.75
64933;BME280;51446;53.850;10.662;2023-03-01T10:15:53;102923.78;;;13.40;57.24
64933;BME280;51446;53.850;10.662;2023-03-01T10:18:25;102917.34;;;12.89;58.98
64933;BME280;51446;53.850;10.662;2023-03-01T10:21:07;102923.28;;;12.62;61.46
64933;BME280;51446;53.850;10.662;2023-03-01T10:23:35;102921.03;;;10.61;68.27
64933;BME280;51446;53.850;10.662;2023-03-01T10:26:07;102906.19;;;11.34;64.41
64933;BME280;51446;53.850;10.662;2023-03-01T10:28:58;102917.41;;;12.48;57.93
64933;BME280;51446;53.850;10.662;2023-03-01T10:31:27;102915.56;;;11.86;60.67
64933;BME280;51446;53.850;10.662;2023-03-01T10:34:02;102917.59;;;12.95;55.51
64933;BME280;51446;53.850;10.662;2023-03-01T10:36:32;102907.97;;;11.35;62.79
64933;BME280;51446;53.850;10.662;2023-03-01T10:38:57;102895.00;;;14.70;53.07
64933;BME280;51446;53.850;10.662;2023-03-01T10:41:25;102895.50;;;12.69;53.05
64933;BME280;51446;53.850;10.662;2023-03-01T10:43:58;102891.13;;;13.83;56.64
64933;BME280;51446;53.850;10.662;2023-03-01T10:46:33;102891.34;;;13.42;51.87
64933;BME280;51446;53.850;10.662;2023-03-01T10:49:24;102887.28;;;14.50;50.96
64933;BME280;51446;53.850;10.662;2023-03-01T10:51:53;102888.09;;;15.02;48.25
64933;BME280;51446;53.850;10.662;2023-03-01T10:54:21;102891.66;;;13.98;49.76
64933;BME280;51446;53.850;10.662;2023-03-01T10:56:49;102886.06;;;13.42;50.34
64933;BME280;51446;53.850;10.662;2023-03-01T10:59:29;102893.97;;;12.97;52.67
64933;BME280;51446;53.850;10.662;2023-03-01T11:02:18;102883.78;;;12.62;58.38
64933;BME280;51446;53.850;10.662;2023-03-01T11:04:57;102884.44;;;12.78;56.39
64933;BME280;51446;53.850;10.662;2023-03-01T11:07:23;102881.28;;;13.79;53.75
64933;BME280;51446;53.850;10.662;2023-03-01T11:09:48;102878.81;;;13.59;52.94
64933;BME280;51446;53.850;10.662;2023-03-01T11:12:15;102878.66;;;13.55;54.51
64933;BME280;51446;53.850;10.662;2023-03-01T11:14:51;102880.16;;;13.96;53.71
64933;BME280;51446;53.850;10.662;2023-03-01T11:17:23;102873.78;;;14.15;52.12
64933;BME280;51446;53.850;10.662;2023-03-01T11:22:49;102879.50;;;15.38;48.23
64933;BME280;51446;53.850;10.662;2023-03-01T11:25:17;102864.34;;;15.61;45.84
64933;BME280;51446;53.850;10.662;2023-03-01T11:27:46;102876.06;;;15.41;47.18
64933;BME280;51446;53.850;10.662;2023-03-01T11:30:23;102874.03;;;15.32;48.28
64933;BME280;51446;53.850;10.662;2023-03-01T11:35:35;102871.41;;;13.97;50.38
64933;BME280;51446;53.850;10.662;2023-03-01T11:40:43;102872.31;;;15.04;48.20
64933;BME280;51446;53.850;10.662;2023-03-01T11:43:30;102867.34;;;16.07;45.29
64933;BME280;51446;53.850;10.662;2023-03-01T11:51:21;102857.22;;;15.00;48.44
64933;BME280;51446;53.850;10.662;2023-03-01T11:54:01;102849.50;;;14.79;47.78
64933;BME280;51446;53.850;10.662;2023-03-01T11:56:43;102858.06;;;13.68;49.55
64933;BME280;51446;53.850;10.662;2023-03-01T11:59:32;102851.81;;;13.91;49.54
64933;BME280;51446;53.850;10.662;2023-03-01T12:05:20;102857.53;;;14.56;47.26
64933;BME280;51446;53.850;10.662;2023-03-01T12:07:58;102859.78;;;12.98;50.32
64933;BME280;51446;53.850;10.662;2023-03-01T12:10:35;102856.09;;;13.39;49.92
64933;BME280;51446;53.850;10.662;2023-03-01T12:13:15;102857.81;;;13.15;52.19
64933;BME280;51446;53.850;10.662;2023-03-01T12:24:51;102849.81;;;11.27;64.25
64933;BME280;51446;53.850;10.662;2023-03-01T12:27:55;102852.34;;;11.06;71.99
64933;BME280;51446;53.850;10.662;2023-03-01T12:30:46;102844.34;;;10.85;78.10
64933;BME280;51446;53.850;10.662;2023-03-01T12:39:26;102830.91;;;10.79;77.91
64933;BME280;51446;53.850;10.662;2023-03-01T12:42:20;102826.28;;;11.10;78.62
64933;BME280;51446;53.850;10.662;2023-03-01T12:45:12;102831.72;;;9.72;93.25
64933;BME280;51446;53.850;10.662;2023-03-01T12:50:20;102822.59;;;9.48;91.25
64933;BME280;51446;53.850;10.662;2023-03-01T12:52:52;102827.81;;;9.00;100.00
64933;BME280;51446;53.850;10.662;2023-03-01T12:55:37;102830.81;;;8.60;100.00
64933;BME280;51446;53.850;10.662;2023-03-01T12:58:24;102823.69;;;9.03;100.00
64933;BME280;51446;53.850;10.662;2023-03-01T13:01:03;102817.50;;;9.51;97.79
64933;BME280;51446;53.850;10.662;2023-03-01T13:11:44;102816.97;;;8.46;100.00
64933;BME280;51446;53.850;10.662;2023-03-01T13:16:51;102813.72;;;8.81;100.00
64933;BME280;51446;53.850;10.662;2023-03-01T13:19:19;102808.38;;;9.11;100.00
64933;BME280;51446;53.850;10.662;2023-03-01T13:21:47;102813.44;;;8.15;100.00
64933;BME280;51446;53.850;10.662;2023-03-01T13:32:31;102801.16;;;8.29;100.00
64933;BME280;51446;53.850;10.662;2023-03-01T13:37:50;102796.25;;;8.04;100.00
64933;BME280;51446;53.850;10.662;2023-03-01T13:42:45;102784.09;;;7.46;100.00
64933;BME280;51446;53.850;10.662;2023-03-01T13:45:37;102784.28;;;7.21;100.00
64933;BME280;51446;53.850;10.662;2023-03-01T13:48:11;102786.09;;;7.51;100.00
64933;BME280;51446;53.850;10.662;2023-03-01T13:50:48;102781.41;;;7.60;100.00
64933;BME280;51446;53.850;10.662;2023-03-01T13:53:21;102778.69;;;7.43;100.00
64933;BME280;51446;53.850;10.662;2023-03-01T13:55:51;102782.78;;;7.25;100.00